createdAt,value
2023-02-27T15:35:44.410Z,5.76
2023-02-27T15:40:44.377Z,5.68
2023-02-27T15:45:44.239Z,5.48
2023-02-27T15:50:44.214Z,5.30
2023-02-27T15:55:44.188Z,5.13
2023-02-27T16:00:44.078Z,5.27
2023-02-27T16:05:44.171Z,5.15
2023-02-27T16:10:44.012Z,5.15
2023-02-27T16:15:43.926Z,5.20
2023-02-27T16:20:43.914Z,5.09
2023-02-27T16:25:44.095Z,5.03
2023-02-27T16:30:43.860Z,5.07
2023-02-27T16:35:43.825Z,4.82
2023-02-27T16:40:43.734Z,4.94
2023-02-27T16:45:43.627Z,5.00
2023-02-27T16:50:43.576Z,4.80
2023-02-27T16:55:43.459Z,4.77
2023-02-27T17:00:43.561Z,4.73
2023-02-27T17:05:43.501Z,4.72
2023-02-27T17:10:44.540Z,4.72
2023-02-27T17:15:43.239Z,4.66
2023-02-27T17:20:43.210Z,4.78
2023-02-27T17:25:43.207Z,4.55
2023-02-27T17:30:43.427Z,4.45
2023-02-27T17:35:43.216Z,4.60
2023-02-27T17:40:42.986Z,4.37
2023-02-27T17:45:43.213Z,4.42
2023-02-27T17:50:44.906Z,4.30
2023-02-27T17:55:42.863Z,4.15
2023-02-27T18:00:42.762Z,4.04
2023-02-27T18:05:42.842Z,3.87
2023-02-27T18:10:45.037Z,3.83
2023-02-27T18:15:46.205Z,3.76
2023-02-27T18:20:42.601Z,3.91
2023-02-27T18:25:42.645Z,3.76
2023-02-27T18:30:42.778Z,3.58
2023-02-27T18:35:42.462Z,3.57
2023-02-27T18:40:42.404Z,3.55
2023-02-27T18:45:45.855Z,3.50
2023-02-27T18:50:42.547Z,3.45
2023-02-27T18:55:42.284Z,3.32
2023-02-27T19:00:42.204Z,3.13
2023-02-27T19:05:42.272Z,3.11
2023-02-27T19:10:42.186Z,3.14
2023-02-27T19:15:42.067Z,3.14
2023-02-27T19:20:42.229Z,3.24
2023-02-27T19:25:43.184Z,3.36
2023-02-27T19:30:42.104Z,3.40
2023-02-27T19:35:43.590Z,3.47
2023-02-27T19:40:41.947Z,3.45
2023-02-27T19:45:41.867Z,3.48
2023-02-27T19:50:41.651Z,3.45
2023-02-27T19:55:41.863Z,3.36
2023-02-27T20:00:41.616Z,3.35
2023-02-27T20:05:51.541Z,3.28
2023-02-27T20:10:42.298Z,3.18
2023-02-27T20:15:41.614Z,3.11
2023-02-27T20:20:41.735Z,3.02
2023-02-27T20:25:41.302Z,2.96
2023-02-27T20:30:41.202Z,2.92
2023-02-27T20:35:41.409Z,2.84
2023-02-27T20:40:41.462Z,2.78
2023-02-27T20:45:41.198Z,2.64
2023-02-27T20:50:42.029Z,2.46
2023-02-27T20:55:40.976Z,2.54
2023-02-27T21:02:39.571Z,2.43
2023-02-27T21:07:39.229Z,2.18
2023-02-27T21:12:39.249Z,2.02
2023-02-27T21:17:39.326Z,1.87
2023-02-27T21:22:39.080Z,1.93
2023-02-27T21:27:39.126Z,1.87
2023-02-27T21:32:38.962Z,1.80
2023-02-27T21:37:38.992Z,1.70
2023-02-27T21:42:38.948Z,1.51
2023-02-27T21:47:38.887Z,1.30
2023-02-27T21:52:38.766Z,1.24
2023-02-27T21:57:38.795Z,1.09
2023-02-27T22:02:38.667Z,0.90
2023-02-27T22:07:38.682Z,0.83
2023-02-27T22:12:38.674Z,0.80
2023-02-27T22:17:38.521Z,0.73
2023-02-27T22:22:38.580Z,0.76
2023-02-27T22:27:38.467Z,0.70
2023-02-27T22:32:38.326Z,0.76
2023-02-27T22:37:38.309Z,0.65
2023-02-27T22:42:38.225Z,0.49
2023-02-27T23:28:42.989Z,0.11
2023-02-27T23:33:43.104Z,-0.05
2023-02-27T23:38:42.868Z,-0.01
2023-02-27T23:43:42.818Z,0.10
2023-02-27T23:48:42.824Z,0.32
2023-02-27T23:53:42.795Z,0.39
2023-02-27T23:58:42.826Z,0.50
